createdAt,value
2022-08-14T00:00:31.819Z,41.85
2022-08-14T00:01:11.628Z,41.55
2022-08-14T00:01:54.596Z,41.33
2022-08-14T00:02:31.596Z,41.63
2022-08-14T00:03:06.998Z,42.63
2022-08-14T00:03:41.695Z,41.63
2022-08-14T00:04:35.702Z,43.70
2022-08-14T00:05:12.103Z,43.90
2022-08-14T00:05:46.903Z,41.90
2022-08-14T00:06:32.055Z,42.10
2022-08-14T00:07:08.573Z,42.03
2022-08-14T00:07:43.510Z,44.20
2022-08-14T00:08:45.207Z,43.40
2022-08-14T00:09:16.519Z,42.10
2022-08-14T00:09:55.722Z,41.10
2022-08-14T00:10:49.940Z,41.08
2022-08-14T00:11:32.085Z,41.70
2022-08-14T00:12:23.651Z,41.70
2022-08-14T00:12:59.553Z,42.67
2022-08-14T00:13:46.515Z,41.97
2022-08-14T00:14:28.936Z,42.38
2022-08-14T00:15:06.299Z,44.25
2022-08-14T00:15:43.504Z,42.97
2022-08-14T00:16:41.306Z,43.25
2022-08-14T00:17:12.874Z,42.85
2022-08-14T00:17:53.455Z,41.75
2022-08-14T00:18:30.497Z,43.15
2022-08-14T00:19:25.047Z,40.92
2022-08-14T00:20:01.075Z,42.72
2022-08-14T00:20:42.866Z,50.08
2022-08-14T00:21:18.349Z,48.38
2022-08-14T00:21:57.397Z,42.47
2022-08-14T00:22:56.697Z,42.25
2022-08-14T00:23:27.374Z,41.00
2022-08-14T00:24:02.727Z,44.45
2022-08-14T00:24:37.911Z,42.20
2022-08-14T00:25:12.306Z,41.47
2022-08-14T00:25:59.010Z,41.30
2022-08-14T00:26:40.849Z,40.00
2022-08-14T00:27:18.709Z,41.55
2022-08-14T00:27:54.197Z,41.13
2022-08-14T00:28:34.895Z,41.40
2022-08-14T00:29:10.752Z,39.00
2022-08-14T00:29:46.041Z,42.15
2022-08-14T00:30:24.046Z,38.97
2022-08-14T00:31:01.910Z,40.83
2022-08-14T00:31:44.227Z,40.90
2022-08-14T00:32:55.758Z,39.83
2022-08-14T00:33:16.448Z,39.88
2022-08-14T00:33:53.016Z,39.67
2022-08-14T00:34:36.776Z,39.83
2022-08-14T00:35:20.643Z,39.50
2022-08-14T00:36:36.591Z,39.22
2022-08-14T00:37:07.795Z,41.75
2022-08-14T00:37:46.752Z,41.00
2022-08-14T00:38:22.295Z,39.88
2022-08-14T00:38:59.785Z,40.58
2022-08-14T00:39:34.342Z,40.30
2022-08-14T00:40:19.079Z,40.15
2022-08-14T00:41:10.983Z,39.67
2022-08-14T00:41:46.649Z,39.28
2022-08-14T00:42:52.828Z,39.47
2022-08-14T00:43:16.432Z,39.00
2022-08-14T00:43:52.037Z,39.97
2022-08-14T00:44:32.268Z,42.20
2022-08-14T00:45:09.036Z,38.50
2022-08-14T00:45:52.601Z,39.50
2022-08-14T00:46:32.201Z,40.05
2022-08-14T00:47:10.849Z,41.05
2022-08-14T00:47:46.426Z,40.55
2022-08-14T00:48:34.600Z,40.75
2022-08-14T00:49:14.574Z,39.22
2022-08-14T00:49:49.928Z,39.60
2022-08-14T00:50:24.663Z,41.03
2022-08-14T00:51:01.345Z,40.53
2022-08-14T00:51:38.222Z,39.67
2022-08-14T00:52:14.059Z,39.67
2022-08-14T00:52:54.399Z,38.80
2022-08-14T00:53:28.598Z,39.50
2022-08-14T00:54:11.268Z,38.38
2022-08-14T00:54:58.506Z,38.22
2022-08-14T00:55:37.260Z,38.80
2022-08-14T00:56:15.643Z,40.05
2022-08-14T00:56:55.276Z,38.50
2022-08-14T00:57:31.951Z,38.25
2022-08-14T00:58:27.778Z,39.08
2022-08-14T00:59:08.500Z,38.30
2022-08-14T00:59:42.893Z,37.90
2022-08-14T01:00:37.487Z,38.05
2022-08-14T01:01:19.193Z,36.95
2022-08-14T01:01:53.322Z,38.13
2022-08-14T01:02:31.982Z,37.67
2022-08-14T01:03:06.933Z,38.17
2022-08-14T01:03:46.177Z,37.92
2022-08-14T01:04:38.410Z,38.42
2022-08-14T01:05:27.897Z,37.42
2022-08-14T01:06:18.655Z,36.58
2022-08-14T01:06:55.308Z,37.88
2022-08-14T01:07:38.996Z,36.80
2022-08-14T01:08:51.607Z,36.53
2022-08-14T01:09:23.312Z,36.38
2022-08-14T01:09:59.701Z,37.33
2022-08-14T01:10:49.529Z,37.40
2022-08-14T01:11:24.300Z,36.75
2022-08-14T01:12:03.366Z,35.28
2022-08-14T01:12:41.636Z,37.90
2022-08-14T01:13:19.721Z,36.67
2022-08-14T01:13:56.108Z,36.03
2022-08-14T01:14:36.889Z,36.10
2022-08-14T01:15:14.783Z,36.70
2022-08-14T01:16:01.250Z,36.55
2022-08-14T01:16:40.212Z,35.97
2022-08-14T01:17:22.065Z,35.95
2022-08-14T01:18:14.378Z,35.75
2022-08-14T01:19:07.444Z,36.45
2022-08-14T01:20:27.360Z,33.97
2022-08-14T01:21:07.455Z,34.45
2022-08-14T01:21:47.223Z,36.05
2022-08-14T01:22:29.546Z,35.83
2022-08-14T01:23:07.376Z,35.60
2022-08-14T01:23:46.628Z,35.65
2022-08-14T01:24:24.630Z,36.55
2022-08-14T01:25:08.197Z,36.35
2022-08-14T01:25:42.213Z,35.70
2022-08-14T01:26:34.636Z,37.67
2022-08-14T01:27:10.496Z,35.35
2022-08-14T01:27:57.755Z,36.30
2022-08-14T01:28:56.422Z,35.42
2022-08-14T01:29:58.104Z,33.83
2022-08-14T01:30:28.424Z,34.75
2022-08-14T01:31:06.555Z,35.22
2022-08-14T01:31:44.037Z,33.75
2022-08-14T01:32:24.755Z,34.60
2022-08-14T01:32:59.784Z,34.63
2022-08-14T01:33:44.630Z,33.83
2022-08-14T01:35:18.068Z,34.13
2022-08-14T01:36:04.029Z,32.40
2022-08-14T01:36:23.308Z,33.00
2022-08-14T01:37:00.687Z,32.65
2022-08-14T01:37:36.099Z,32.80
2022-08-14T01:38:13.811Z,32.70
2022-08-14T01:38:52.568Z,33.10
2022-08-14T01:39:28.334Z,34.15
2022-08-14T01:40:09.172Z,34.42
2022-08-14T01:40:50.125Z,33.75
2022-08-14T01:41:30.267Z,34.03
2022-08-14T01:42:08.801Z,33.50
2022-08-14T01:42:44.396Z,34.08
2022-08-14T01:43:22.128Z,34.50
2022-08-14T01:44:04.595Z,34.22
2022-08-14T01:44:41.297Z,33.63
2022-08-14T01:45:17.858Z,34.55
2022-08-14T01:46:06.138Z,34.05
2022-08-14T01:46:42.284Z,33.05
2022-08-14T01:47:22.246Z,33.42
2022-08-14T01:48:03.008Z,34.85
2022-08-14T01:48:38.335Z,33.60
2022-08-14T01:49:16.201Z,33.55
2022-08-14T01:50:01.273Z,34.53
2022-08-14T01:50:38.999Z,32.45
2022-08-14T01:51:20.084Z,32.45
2022-08-14T01:51:57.940Z,33.55
2022-08-14T01:52:59.452Z,33.70
2022-08-14T01:53:32.781Z,33.30
2022-08-14T01:54:14.308Z,33.17
2022-08-14T01:54:58.098Z,33.03
2022-08-14T01:55:32.781Z,33.13
2022-08-14T01:56:12.192Z,33.85
2022-08-14T01:56:55.789Z,32.38
2022-08-14T01:57:49.758Z,35.53
2022-08-14T01:58:30.343Z,34.28
2022-08-14T01:59:09.557Z,31.38
2022-08-14T01:59:45.689Z,33.65
2022-08-14T02:00:43.125Z,33.05
2022-08-14T02:01:26.573Z,34.00
2022-08-14T02:02:02.428Z,34.28
2022-08-14T02:02:38.539Z,34.67
2022-08-14T02:03:16.725Z,34.10
2022-08-14T02:03:53.395Z,33.55
2022-08-14T02:04:55.745Z,33.92
2022-08-14T02:05:35.634Z,32.47
2022-08-14T02:06:32.465Z,33.55
2022-08-14T02:07:15.518Z,45.35
2022-08-14T02:08:01.184Z,37.60
2022-08-14T02:08:53.209Z,31.98
2022-08-14T02:09:32.005Z,33.95
2022-08-14T02:10:07.253Z,32.63
2022-08-14T02:10:47.169Z,33.30
2022-08-14T02:11:26.578Z,33.55
2022-08-14T02:12:04.299Z,33.00
2022-08-14T02:12:43.615Z,33.85
2022-08-14T02:13:21.329Z,33.70
2022-08-14T02:13:59.530Z,33.58
2022-08-14T02:14:40.822Z,32.85
2022-08-14T02:15:34.290Z,34.80
2022-08-14T02:16:13.469Z,34.85
2022-08-14T02:16:57.914Z,33.15
2022-08-14T02:17:34.660Z,33.67
2022-08-14T02:18:08.960Z,33.13
2022-08-14T02:18:43.297Z,34.33
2022-08-14T02:19:20.877Z,31.85
2022-08-14T02:19:58.706Z,31.83
2022-08-14T02:20:35.968Z,32.40
2022-08-14T02:21:12.918Z,35.22
2022-08-14T02:21:50.519Z,32.38
2022-08-14T02:22:32.503Z,32.75
2022-08-14T02:23:29.100Z,33.42
2022-08-14T02:24:38.955Z,32.95
2022-08-14T02:25:04.837Z,32.72
2022-08-14T02:25:42.021Z,32.83
2022-08-14T02:26:29.077Z,33.67
2022-08-14T02:28:21.921Z,31.42
2022-08-14T02:28:24.751Z,32.38
2022-08-14T02:28:56.811Z,31.63
2022-08-14T02:29:59.527Z,32.55
2022-08-14T02:30:31.358Z,32.92
2022-08-14T02:31:09.900Z,33.10
2022-08-14T02:31:46.711Z,32.45
2022-08-14T02:32:30.284Z,34.83
2022-08-14T02:33:11.907Z,34.70
2022-08-14T02:33:48.404Z,33.72
2022-08-14T02:34:26.316Z,33.78
2022-08-14T02:35:04.625Z,34.25
2022-08-14T02:35:41.772Z,32.42
2022-08-14T02:37:04.922Z,32.88
2022-08-14T02:37:13.921Z,33.90
2022-08-14T02:37:51.051Z,32.97
2022-08-14T02:38:30.217Z,33.53
2022-08-14T02:39:10.199Z,32.65
2022-08-14T02:39:46.278Z,33.72
2022-08-14T02:40:32.570Z,33.70
2022-08-14T02:41:11.170Z,33.22
2022-08-14T02:41:52.593Z,32.72
2022-08-14T02:42:37.469Z,33.55
2022-08-14T02:43:13.061Z,34.53
2022-08-14T02:43:48.811Z,32.83
2022-08-14T02:44:29.831Z,32.55
2022-08-14T02:45:05.953Z,32.33
2022-08-14T02:45:44.467Z,33.13
2022-08-14T02:46:20.328Z,38.72
2022-08-14T02:47:03.386Z,34.00
2022-08-14T02:47:42.047Z,33.30
2022-08-14T02:49:01.785Z,35.38
2022-08-14T02:49:17.650Z,33.90
2022-08-14T02:49:59.324Z,32.05
2022-08-14T02:50:33.845Z,33.00
2022-08-14T02:51:11.664Z,33.40
2022-08-14T02:51:50.107Z,33.97
2022-08-14T02:52:57.158Z,33.65
2022-08-14T02:53:22.108Z,33.53
2022-08-14T02:53:59.070Z,33.63
2022-08-14T02:54:35.923Z,33.67
2022-08-14T02:55:11.286Z,32.97
2022-08-14T02:55:45.443Z,33.67
2022-08-14T02:56:29.949Z,33.47
2022-08-14T02:57:39.197Z,33.28
2022-08-14T02:58:10.489Z,32.80
2022-08-14T02:58:57.188Z,33.45
2022-08-14T02:59:37.347Z,34.00
2022-08-14T03:00:18.869Z,32.88
2022-08-14T03:00:57.380Z,32.20
2022-08-14T03:01:50.104Z,33.40
2022-08-14T03:02:48.654Z,32.67
2022-08-14T03:03:24.939Z,33.00
2022-08-14T03:03:59.137Z,33.88
2022-08-14T03:04:34.972Z,32.92
2022-08-14T03:05:09.555Z,31.92
2022-08-14T03:05:44.829Z,33.42
2022-08-14T03:06:35.206Z,32.17
2022-08-14T03:07:17.971Z,33.08
2022-08-14T03:07:54.084Z,34.58
2022-08-14T03:08:31.965Z,33.38
2022-08-14T03:09:07.854Z,32.95
2022-08-14T03:10:26.851Z,33.55
2022-08-14T03:10:41.928Z,32.50
2022-08-14T03:11:23.651Z,31.80
2022-08-14T03:12:10.550Z,32.47
2022-08-14T03:12:46.327Z,33.22
2022-08-14T03:13:22.263Z,32.72
2022-08-14T03:14:00.181Z,32.70
2022-08-14T03:14:37.583Z,33.47
2022-08-14T03:15:19.220Z,32.78
2022-08-14T03:15:57.976Z,33.65
2022-08-14T03:16:38.534Z,32.03
2022-08-14T03:17:17.526Z,33.55
2022-08-14T03:17:56.558Z,33.13
2022-08-14T03:18:33.078Z,33.95
2022-08-14T03:19:09.139Z,34.42
2022-08-14T03:19:46.288Z,34.03
2022-08-14T03:20:25.741Z,31.90
2022-08-14T03:21:02.864Z,34.25
2022-08-14T03:21:38.208Z,33.25
2022-08-14T03:22:17.535Z,34.88
2022-08-14T03:22:54.167Z,34.30
2022-08-14T03:23:28.045Z,34.53
2022-08-14T03:24:21.512Z,34.45
2022-08-14T03:24:58.432Z,34.10
2022-08-14T03:25:37.397Z,33.95
2022-08-14T03:26:18.214Z,34.55
2022-08-14T03:27:03.950Z,35.80
2022-08-14T03:27:48.320Z,34.63
2022-08-14T03:28:33.864Z,33.70
2022-08-14T03:29:14.097Z,34.08
2022-08-14T03:29:48.918Z,34.33
2022-08-14T03:30:24.863Z,35.45
2022-08-14T03:31:15.837Z,35.38
2022-08-14T03:31:51.936Z,34.80
2022-08-14T03:32:30.436Z,34.08
2022-08-14T03:33:07.701Z,33.97
2022-08-14T03:33:44.296Z,32.95
2022-08-14T03:34:24.921Z,32.70
2022-08-14T03:35:14.872Z,32.03
2022-08-14T03:35:59.774Z,32.17
2022-08-14T03:37:28.834Z,30.63
2022-08-14T03:39:10.345Z,32.45
2022-08-14T03:39:12.371Z,33.42
2022-08-14T03:39:30.247Z,31.67
2022-08-14T03:40:11.260Z,32.03
2022-08-14T03:40:46.622Z,31.83
2022-08-14T03:41:23.146Z,32.03
2022-08-14T03:42:01.579Z,35.55
2022-08-14T03:42:38.077Z,33.08
2022-08-14T03:43:12.726Z,34.72
2022-08-14T03:43:57.762Z,33.60
2022-08-14T03:45:19.483Z,31.38
2022-08-14T03:45:35.252Z,28.00
2022-08-14T03:46:52.799Z,25.95
2022-08-14T03:47:08.420Z,25.95
2022-08-14T03:47:53.397Z,26.92
2022-08-14T03:48:40.296Z,27.92
2022-08-14T03:49:24.296Z,29.02
2022-08-14T03:50:03.209Z,28.92
2022-08-14T03:50:45.460Z,29.58
2022-08-14T03:51:28.021Z,28.25
2022-08-14T03:52:17.977Z,28.33
2022-08-14T03:53:00.972Z,28.27
2022-08-14T03:53:37.063Z,26.13
2022-08-14T03:54:15.704Z,27.15
2022-08-14T03:54:56.787Z,27.38
2022-08-14T03:55:32.487Z,27.38
2022-08-14T03:56:08.088Z,28.67
2022-08-14T03:56:46.292Z,26.13
2022-08-14T03:57:24.913Z,26.73
2022-08-14T03:58:00.229Z,26.77
2022-08-14T03:58:36.943Z,26.42
2022-08-14T03:59:18.040Z,26.38
2022-08-14T03:59:55.873Z,26.02
2022-08-14T04:00:43.182Z,26.42
2022-08-14T04:01:20.543Z,27.60
2022-08-14T04:02:01.235Z,26.27
2022-08-14T04:02:47.180Z,25.90
2022-08-14T04:03:40.104Z,25.98
2022-08-14T04:04:16.430Z,24.60
2022-08-14T04:04:53.739Z,24.98
2022-08-14T04:05:29.133Z,25.35
2022-08-14T04:06:13.092Z,25.42
2022-08-14T04:06:57.930Z,23.58
2022-08-14T04:07:35.963Z,23.58
2022-08-14T04:08:29.930Z,23.23
2022-08-14T04:09:06.213Z,23.08
2022-08-14T04:09:40.747Z,23.23
2022-08-14T04:10:17.098Z,23.33
2022-08-14T04:10:52.808Z,22.77
2022-08-14T04:11:27.660Z,24.23
2022-08-14T04:12:03.306Z,22.42
2022-08-14T04:12:40.600Z,23.50
2022-08-14T04:13:19.117Z,22.27
2022-08-14T04:13:59.439Z,20.05
2022-08-14T04:14:37.311Z,18.77
2022-08-14T04:15:12.442Z,19.80
2022-08-14T04:15:56.524Z,19.00
2022-08-14T04:16:36.844Z,20.52
2022-08-14T04:17:12.486Z,21.00
2022-08-14T04:17:48.527Z,23.65
2022-08-14T04:18:23.508Z,22.65
2022-08-14T04:18:59.569Z,22.33
2022-08-14T04:19:38.413Z,21.50
2022-08-14T04:20:14.113Z,22.65
2022-08-14T04:21:00.461Z,22.50
2022-08-14T04:21:39.860Z,21.58
2022-08-14T04:22:32.389Z,22.20
2022-08-14T04:23:10.504Z,22.95
2022-08-14T04:23:57.098Z,22.20
2022-08-14T04:24:37.808Z,23.05
2022-08-14T04:25:13.765Z,21.60
2022-08-14T04:25:49.421Z,22.83
2022-08-14T04:26:26.992Z,23.05
2022-08-14T04:27:17.193Z,22.85
2022-08-14T04:28:03.275Z,22.77
2022-08-14T04:29:01.945Z,22.70
2022-08-14T04:29:33.424Z,22.75
2022-08-14T04:30:09.175Z,23.20
2022-08-14T04:31:00.433Z,23.50
2022-08-14T04:32:57.639Z,23.40
2022-08-14T04:32:58.456Z,22.13
2022-08-14T04:33:26.124Z,21.80
2022-08-14T04:34:05.342Z,22.33
2022-08-14T04:34:42.706Z,21.02
2022-08-14T04:35:25.717Z,20.90
2022-08-14T04:36:21.584Z,19.02
2022-08-14T04:37:22.070Z,19.77
2022-08-14T04:38:36.425Z,21.13
2022-08-14T04:39:31.288Z,19.75
2022-08-14T04:40:27.819Z,20.25
2022-08-14T04:41:20.917Z,19.42
2022-08-14T04:42:15.686Z,21.73
2022-08-14T04:43:14.247Z,23.38
2022-08-14T04:43:53.268Z,21.95
2022-08-14T04:44:36.606Z,22.70
2022-08-14T04:45:15.343Z,22.52
2022-08-14T04:45:51.619Z,22.90
2022-08-14T04:46:55.221Z,23.95
2022-08-14T04:47:53.654Z,20.05
2022-08-14T04:48:38.911Z,19.98
2022-08-14T04:49:17.770Z,19.70
2022-08-14T04:49:57.353Z,19.70
2022-08-14T04:50:44.101Z,20.50
2022-08-14T04:51:20.150Z,21.45
2022-08-14T04:51:56.395Z,21.73
2022-08-14T04:52:32.021Z,23.63
2022-08-14T04:53:13.941Z,20.95
2022-08-14T04:53:49.747Z,18.90
2022-08-14T04:54:27.941Z,21.20
2022-08-14T04:55:02.389Z,21.83
2022-08-14T04:55:39.080Z,20.85
2022-08-14T04:56:30.994Z,21.45
2022-08-14T04:57:14.421Z,20.75
2022-08-14T04:57:49.837Z,21.58
2022-08-14T04:58:32.441Z,19.90
2022-08-14T04:59:11.160Z,20.55
2022-08-14T04:59:46.196Z,18.02
2022-08-14T05:00:22.805Z,19.02
2022-08-14T05:01:12.736Z,18.50
2022-08-14T05:01:56.891Z,19.42
2022-08-14T05:02:35.319Z,19.47
2022-08-14T05:03:11.824Z,18.08
2022-08-14T05:03:47.892Z,16.60
2022-08-14T05:04:25.728Z,16.52
2022-08-14T05:05:01.191Z,17.13
2022-08-14T05:05:37.509Z,16.45
2022-08-14T05:06:38.530Z,17.33
2022-08-14T05:07:06.605Z,15.30
2022-08-14T05:07:54.180Z,16.17
2022-08-14T05:08:50.761Z,15.80
2022-08-14T05:09:31.781Z,16.70
2022-08-14T05:10:13.267Z,16.95
2022-08-14T05:10:54.324Z,18.33
2022-08-14T05:11:28.581Z,18.65
2022-08-14T05:13:11.791Z,19.83
2022-08-14T05:13:14.207Z,20.25
2022-08-14T05:14:53.637Z,16.77
2022-08-14T05:15:32.175Z,16.60
2022-08-14T05:16:10.245Z,17.15
2022-08-14T05:16:46.745Z,17.02
2022-08-14T05:17:28.748Z,17.58
2022-08-14T05:19:17.632Z,17.05
2022-08-14T05:19:18.891Z,20.10
2022-08-14T05:21:54.826Z,18.27
2022-08-14T05:21:56.891Z,19.65
2022-08-14T05:22:01.156Z,19.42
2022-08-14T05:22:51.098Z,18.90
2022-08-14T05:23:32.300Z,18.65
2022-08-14T05:24:16.842Z,19.27
2022-08-14T05:24:53.338Z,20.15
2022-08-14T05:25:31.032Z,20.67
2022-08-14T05:26:15.674Z,19.92
2022-08-14T05:26:51.310Z,19.80
2022-08-14T05:27:30.889Z,19.88
2022-08-14T05:28:12.359Z,23.05
2022-08-14T05:28:48.502Z,23.25
2022-08-14T05:29:23.305Z,23.58
2022-08-14T05:29:58.862Z,23.40
2022-08-14T05:30:33.454Z,22.75
2022-08-14T05:31:08.956Z,23.10
2022-08-14T05:31:43.407Z,23.83
2022-08-14T05:32:17.822Z,23.60
2022-08-14T05:32:52.086Z,23.45
2022-08-14T05:33:30.133Z,22.95
2022-08-14T05:34:04.856Z,22.23
2022-08-14T05:34:39.772Z,23.55
2022-08-14T05:35:15.189Z,22.63
2022-08-14T05:35:51.989Z,23.60
2022-08-14T05:36:28.085Z,24.08
2022-08-14T05:37:06.858Z,24.25
2022-08-14T05:37:46.041Z,24.00
2022-08-14T05:38:31.365Z,24.77
2022-08-14T05:39:08.215Z,25.70
2022-08-14T05:39:43.602Z,24.67
2022-08-14T05:40:18.868Z,23.98
2022-08-14T05:40:53.333Z,24.52
2022-08-14T05:41:36.943Z,23.23
2022-08-14T05:42:26.929Z,22.38
2022-08-14T05:43:03.308Z,23.55
2022-08-14T05:43:44.226Z,22.63
2022-08-14T05:44:17.659Z,22.30
2022-08-14T05:44:54.744Z,22.58
2022-08-14T05:45:30.797Z,22.50
2022-08-14T05:46:06.528Z,21.80
2022-08-14T05:46:41.664Z,21.65
2022-08-14T05:47:18.835Z,21.35
2022-08-14T05:47:54.163Z,21.20
2022-08-14T05:48:33.648Z,21.52
2022-08-14T05:49:11.378Z,22.45
2022-08-14T05:49:49.189Z,21.42
2022-08-14T05:50:24.450Z,20.42
2022-08-14T05:51:01.679Z,21.00
2022-08-14T05:51:36.624Z,21.15
2022-08-14T05:52:11.659Z,21.08
2022-08-14T05:52:52.545Z,22.98
2022-08-14T05:53:32.193Z,22.10
2022-08-14T05:54:13.927Z,22.08
2022-08-14T05:55:02.104Z,21.63
2022-08-14T05:55:44.286Z,20.38
2022-08-14T05:56:18.933Z,20.63
2022-08-14T05:56:55.217Z,20.83
2022-08-14T05:57:30.428Z,21.90
2022-08-14T05:58:06.919Z,21.75
2022-08-14T05:58:44.799Z,20.25
2022-08-14T05:59:19.370Z,21.42
2022-08-14T05:59:54.675Z,21.15
2022-08-14T06:00:38.596Z,19.83
2022-08-14T06:01:13.086Z,19.33
2022-08-14T06:01:51.013Z,19.17
2022-08-14T06:02:25.792Z,18.63
2022-08-14T06:03:04.061Z,18.35
2022-08-14T06:03:40.118Z,18.70
2022-08-14T06:04:16.735Z,18.08
2022-08-14T06:04:50.829Z,17.88
2022-08-14T06:05:28.799Z,17.75
2022-08-14T06:06:05.107Z,16.90
2022-08-14T06:06:40.475Z,16.25
2022-08-14T06:07:15.928Z,15.60
2022-08-14T06:07:51.075Z,14.88
2022-08-14T06:08:36.351Z,15.38
2022-08-14T06:09:16.249Z,16.20
2022-08-14T06:09:52.453Z,16.17
2022-08-14T06:10:28.187Z,16.70
2022-08-14T06:11:06.786Z,15.85
2022-08-14T06:11:41.809Z,15.30
2022-08-14T06:12:55.779Z,16.95
2022-08-14T06:13:12.974Z,18.02
2022-08-14T06:13:49.229Z,18.88
2022-08-14T06:14:26.070Z,17.33
2022-08-14T06:15:01.131Z,17.40
2022-08-14T06:15:36.176Z,16.85
2022-08-14T06:16:12.243Z,15.00
2022-08-14T06:16:48.568Z,13.85
2022-08-14T06:17:25.903Z,14.02
2022-08-14T06:18:01.712Z,12.80
2022-08-14T06:18:38.360Z,13.68
2022-08-14T06:19:18.172Z,13.77
2022-08-14T06:19:53.107Z,13.63
2022-08-14T06:20:28.649Z,13.70
2022-08-14T06:21:04.279Z,13.43
2022-08-14T06:21:40.515Z,13.57
2022-08-14T06:22:16.618Z,12.77
2022-08-14T06:22:51.598Z,12.68
2022-08-14T06:23:26.117Z,12.50
2022-08-14T06:24:04.044Z,13.23
2022-08-14T06:24:44.424Z,14.18
2022-08-14T06:25:19.625Z,14.63
2022-08-14T06:25:56.806Z,13.88
2022-08-14T06:26:32.442Z,15.25
2022-08-14T06:27:10.709Z,14.23
2022-08-14T06:27:46.798Z,14.77
2022-08-14T06:28:28.118Z,16.00
2022-08-14T06:29:05.946Z,14.32
2022-08-14T06:29:39.717Z,15.15
2022-08-14T06:30:15.958Z,15.05
2022-08-14T06:30:52.110Z,14.70
2022-08-14T06:31:26.865Z,15.23
2022-08-14T06:32:37.451Z,15.07
2022-08-14T06:32:57.530Z,16.55
2022-08-14T06:35:02.364Z,15.52
2022-08-14T06:35:09.437Z,14.50
2022-08-14T06:35:23.633Z,14.60
2022-08-14T06:35:57.661Z,14.00
2022-08-14T06:36:32.949Z,14.18
2022-08-14T06:37:06.880Z,14.82
2022-08-14T06:37:44.650Z,14.07
2022-08-14T06:38:20.027Z,13.85
2022-08-14T06:38:56.925Z,13.43
2022-08-14T06:39:37.365Z,13.02
2022-08-14T06:40:16.489Z,13.68
2022-08-14T06:41:00.323Z,13.13
2022-08-14T06:41:57.269Z,12.50
2022-08-14T06:42:33.014Z,11.48
2022-08-14T06:43:08.898Z,10.77
2022-08-14T06:43:45.243Z,11.30
2022-08-14T06:44:22.401Z,13.48
2022-08-14T06:45:08.853Z,12.40
2022-08-14T06:45:50.265Z,11.95
2022-08-14T06:46:34.232Z,11.73
2022-08-14T06:47:12.086Z,10.60
2022-08-14T06:47:48.578Z,10.30
2022-08-14T06:48:24.560Z,10.52
2022-08-14T06:49:00.311Z,9.82
2022-08-14T06:49:44.132Z,10.00
2022-08-14T06:50:28.142Z,9.98
2022-08-14T06:51:03.422Z,9.63
2022-08-14T06:51:44.877Z,10.60
2022-08-14T06:52:20.051Z,10.13
2022-08-14T06:52:57.524Z,10.10
2022-08-14T06:53:32.046Z,10.52
2022-08-14T06:54:06.677Z,10.88
2022-08-14T06:54:44.105Z,12.40
2022-08-14T06:55:22.755Z,12.35
2022-08-14T06:56:02.578Z,11.82
2022-08-14T06:56:38.278Z,11.80
2022-08-14T06:57:14.009Z,13.43
2022-08-14T06:57:52.087Z,87.03
2022-08-14T06:58:29.198Z,32.35
2022-08-14T06:59:06.831Z,13.00
2022-08-14T06:59:51.539Z,13.20
2022-08-14T07:00:31.572Z,14.30
2022-08-14T07:01:27.690Z,12.55
2022-08-14T07:02:21.016Z,12.90
2022-08-14T07:03:14.572Z,12.15
2022-08-14T07:04:22.744Z,13.15
2022-08-14T07:05:23.089Z,12.23
2022-08-14T07:05:58.806Z,19.80
2022-08-14T07:06:45.729Z,11.57
2022-08-14T07:07:21.823Z,11.77
2022-08-14T07:07:58.445Z,11.27
2022-08-14T07:08:34.390Z,11.95
2022-08-14T07:09:12.926Z,11.80
2022-08-14T07:09:51.343Z,12.15
2022-08-14T07:10:26.351Z,10.93
2022-08-14T07:11:05.540Z,10.25
2022-08-14T07:11:41.108Z,9.98
2022-08-14T07:12:55.053Z,9.23
2022-08-14T07:13:11.795Z,8.65
2022-08-14T07:13:48.761Z,10.60
2022-08-14T07:14:26.924Z,10.68
2022-08-14T07:15:02.167Z,9.85
2022-08-14T07:15:40.007Z,8.93
2022-08-14T07:16:16.562Z,9.05
2022-08-14T07:16:53.804Z,8.80
2022-08-14T07:17:27.767Z,9.32
2022-08-14T07:18:09.237Z,8.85
2022-08-14T07:18:44.140Z,8.38
2022-08-14T07:19:20.847Z,8.05
2022-08-14T07:19:57.109Z,8.85
2022-08-14T07:20:32.056Z,8.80
2022-08-14T07:21:08.617Z,8.07
2022-08-14T07:21:43.467Z,7.95
2022-08-14T07:22:20.590Z,8.02
2022-08-14T07:23:01.474Z,8.05
2022-08-14T07:23:40.079Z,8.75
2022-08-14T07:24:22.198Z,8.25
2022-08-14T07:25:00.430Z,7.22
2022-08-14T07:25:37.646Z,8.10
2022-08-14T07:26:14.550Z,7.47
2022-08-14T07:26:49.367Z,8.60
2022-08-14T07:27:24.263Z,7.30
2022-08-14T07:28:03.334Z,7.70
2022-08-14T07:28:43.038Z,7.28
2022-08-14T07:29:24.089Z,6.65
2022-08-14T07:30:03.371Z,6.60
2022-08-14T07:30:37.688Z,8.13
2022-08-14T07:31:17.141Z,8.00
2022-08-14T07:31:51.933Z,206.82
2022-08-14T07:32:33.988Z,88.10
2022-08-14T07:33:09.651Z,315.40
2022-08-14T07:33:49.958Z,75.75
2022-08-14T07:34:36.212Z,15.77
2022-08-14T07:35:17.099Z,10.80
2022-08-14T07:35:58.189Z,7.80
2022-08-14T07:36:34.772Z,7.53
2022-08-14T07:37:09.217Z,7.30
2022-08-14T07:37:44.141Z,6.60
2022-08-14T07:38:22.260Z,6.95
2022-08-14T07:38:55.375Z,8.20
2022-08-14T07:39:34.525Z,6.80
2022-08-14T07:40:11.150Z,6.80
2022-08-14T07:40:45.911Z,6.80
2022-08-14T07:41:21.742Z,6.70
2022-08-14T07:41:56.691Z,7.65
2022-08-14T07:42:31.276Z,13.70
2022-08-14T07:43:14.125Z,6.88
2022-08-14T07:43:55.175Z,6.32
2022-08-14T07:44:36.534Z,6.03
2022-08-14T07:45:22.170Z,6.50
2022-08-14T07:45:57.239Z,6.90
2022-08-14T07:46:33.390Z,6.97
2022-08-14T07:47:10.291Z,6.28
2022-08-14T07:47:44.651Z,6.90
2022-08-14T07:48:19.701Z,22.55
2022-08-14T07:49:01.142Z,7.00
2022-08-14T07:49:37.276Z,6.80
2022-08-14T07:50:16.448Z,6.35
2022-08-14T07:50:57.207Z,6.88
2022-08-14T07:51:40.272Z,6.68
2022-08-14T07:52:21.928Z,7.13
2022-08-14T07:53:04.697Z,6.33
2022-08-14T07:53:41.222Z,6.25
2022-08-14T07:54:23.217Z,6.38
2022-08-14T07:55:06.454Z,6.75
2022-08-14T07:55:41.170Z,6.13
2022-08-14T07:56:21.961Z,6.20
2022-08-14T07:57:12.104Z,5.85
2022-08-14T07:57:52.234Z,5.72
2022-08-14T07:58:30.474Z,6.32
2022-08-14T07:59:10.179Z,6.57
2022-08-14T07:59:49.653Z,5.90
2022-08-14T08:00:31.254Z,6.15
2022-08-14T08:01:09.230Z,6.47
2022-08-14T08:01:51.271Z,7.20
2022-08-14T08:02:28.482Z,6.90
2022-08-14T08:03:11.088Z,6.53
2022-08-14T08:03:49.705Z,6.50
2022-08-14T08:04:34.179Z,6.75
2022-08-14T08:05:11.266Z,6.25
2022-08-14T08:05:47.572Z,6.85
2022-08-14T08:06:23.374Z,5.82
2022-08-14T08:07:00.738Z,6.18
2022-08-14T08:07:39.273Z,5.88
2022-08-14T08:08:27.146Z,6.20
2022-08-14T08:09:04.571Z,6.00
2022-08-14T08:09:40.530Z,5.63
2022-08-14T08:10:57.371Z,5.57
2022-08-14T08:11:37.436Z,4.75
2022-08-14T08:12:14.242Z,5.30
2022-08-14T08:12:50.738Z,5.45
2022-08-14T08:13:28.736Z,5.93
2022-08-14T08:14:10.681Z,5.30
2022-08-14T08:14:56.199Z,5.50
2022-08-14T08:15:41.808Z,6.28
2022-08-14T08:16:16.826Z,6.25
2022-08-14T08:16:52.075Z,6.00
2022-08-14T08:17:27.320Z,5.82
2022-08-14T08:18:10.799Z,5.47
2022-08-14T08:19:10.118Z,5.20
2022-08-14T08:19:51.579Z,5.13
2022-08-14T08:20:27.774Z,5.10
2022-08-14T08:21:04.944Z,4.75
2022-08-14T08:21:43.531Z,5.32
2022-08-14T08:22:20.314Z,4.57
2022-08-14T08:23:00.239Z,4.72
2022-08-14T08:23:40.411Z,4.38
2022-08-14T08:24:19.730Z,4.65
2022-08-14T08:24:55.754Z,4.70
2022-08-14T08:25:40.410Z,5.05
2022-08-14T08:26:15.290Z,5.03
2022-08-14T08:26:51.893Z,5.13
2022-08-14T08:27:28.918Z,4.38
2022-08-14T08:28:08.519Z,5.28
2022-08-14T08:28:44.429Z,4.63
2022-08-14T08:29:25.036Z,5.43
2022-08-14T08:30:10.021Z,4.80
2022-08-14T08:30:52.365Z,5.55
2022-08-14T08:31:33.104Z,4.88
2022-08-14T08:32:09.825Z,4.85
2022-08-14T08:32:46.711Z,5.28
2022-08-14T08:33:24.193Z,4.85
2022-08-14T08:33:59.761Z,4.88
2022-08-14T08:34:33.998Z,4.90
2022-08-14T08:35:13.295Z,4.20
2022-08-14T08:35:50.635Z,4.00
2022-08-14T08:36:29.855Z,4.60
2022-08-14T08:37:07.371Z,4.30
2022-08-14T08:37:43.680Z,4.55
2022-08-14T08:39:16.331Z,4.57
2022-08-14T08:39:22.906Z,9.75
2022-08-14T08:40:03.120Z,9.00
2022-08-14T08:40:42.165Z,4.88
2022-08-14T08:41:17.431Z,3.90
2022-08-14T08:41:54.039Z,4.70
2022-08-14T08:42:31.424Z,4.40
2022-08-14T08:43:19.675Z,4.50
2022-08-14T08:44:17.412Z,4.43
2022-08-14T08:45:02.208Z,4.60
2022-08-14T08:45:40.748Z,4.32
2022-08-14T08:46:23.840Z,4.82
2022-08-14T08:47:03.687Z,5.13
2022-08-14T08:47:41.969Z,4.85
2022-08-14T08:48:20.850Z,5.38
2022-08-14T08:49:06.694Z,4.95